Time;durP1;ratioP1;P1;durP2;ratioP2;P2;SDS_P1;SDS_P2;PMS_P1;PMS_P2;Temp;Humidity;BMP_temperature;BMP_pressure;BME280_temperature;BME280_humidity;BME280_pressure;Samples;Min_cycle;Max_cycle;Signal;HPM_P1;HPM_P2
2022/08/25 00:00:48;;;;;;;;;;;20.70;99.90;;;;;;4975366;28;20401;-84
2022/08/25 00:03:33;;;;;;;;;;;20.60;99.90;;;;;;4974319;28;19989;-91
2022/08/25 00:06:02;;;;;;;;;;;20.60;99.90;;;;;;4976467;28;19971;-87
2022/08/25 00:08:36;;;;;;;;;;;20.60;99.90;;;;;;4956505;28;19977;-91
2022/08/25 00:11:22;;;;;;;;;;;20.60;99.90;;;;;;4972683;28;19925;-88
2022/08/25 00:13:50;;;;;;;;;;;20.60;99.90;;;;;;4974868;28;19926;-85
2022/08/25 00:16:17;;;;;;;;;;;20.50;99.90;;;;;;4990952;28;19925;-86
2022/08/25 00:18:45;;;;;;;;;;;20.50;99.90;;;;;;4991528;28;20020;-86
2022/08/25 00:21:12;;;;;;;;;;;20.50;99.90;;;;;;5412087;23;19926;-90
2022/08/25 00:23:38;;;;;;;;;;;20.50;99.90;;;;;;4995363;28;20404;-88
2022/08/25 00:29:10;;;;;;;;;;;20.40;99.90;;;;;;5023906;28;20019;-88
2022/08/25 00:31:36;;;;;;;;;;;;;;;;;;4995517;28;19931;-85
2022/08/25 00:34:07;;;;;;;;;;;20.40;99.90;;;;;;5011313;28;19925;-85
2022/08/25 00:36:35;;;;;;;;;;;20.40;99.90;;;;;;5007423;28;19928;-87
2022/08/25 00:39:00;;;;;;;;;;;20.30;99.90;;;;;;4994377;28;19964;-83
2022/08/25 00:41:26;;;;;;;;;;;20.40;99.90;;;;;;4997707;28;19971;-87
2022/08/25 00:43:55;;;;;;;;;;;20.30;99.90;;;;;;4994301;28;20228;-83
2022/08/25 00:46:22;;;;;;;;;;;20.30;99.90;;;;;;4996511;28;20167;-90
2022/08/25 00:48:59;;;;;;;;;;;20.20;99.90;;;;;;4998112;28;20412;-84
2022/08/25 00:51:36;;;;;;;;;;;20.20;99.90;;;;;;4998548;28;20384;-88
2022/08/25 00:54:04;;;;;;;;;;;20.20;99.90;;;;;;4994983;28;19972;-88
2022/08/25 00:56:33;;;;;;;;;;;20.20;99.90;;;;;;4987861;28;19926;-85
2022/08/25 00:58:59;;;;;;;;;;;20.20;99.90;;;;;;4998250;28;20047;-87
2022/08/25 01:01:29;;;;;;;;;;;20.20;99.90;;;;;;5002446;28;19929;-87
2022/08/25 01:03:55;;;;;;;;;;;20.20;99.90;;;;;;4996735;28;19921;-83
2022/08/25 01:06:23;;;;;;;;;;;20.10;99.90;;;;;;5012221;28;19932;-86
2022/08/25 01:09:10;;;;;;;;;;;20.10;99.90;;;;;;5032307;28;19964;-84
2022/08/25 01:12:03;;;;;;;;;;;20.10;99.90;;;;;;4994771;28;20438;-84
2022/08/25 01:14:30;;;;;;;;;;;20.10;99.90;;;;;;5006138;28;20028;-83
2022/08/25 01:16:58;;;;;;;;;;;19.80;99.90;;;;;;4998273;28;19929;-84
2022/08/25 01:19:24;;;;;;;;;;;20.00;99.90;;;;;;4997777;28;19932;-81
2022/08/25 01:21:51;;;;;;;;;;;20.00;99.90;;;;;;4976213;28;19925;-83
2022/08/25 01:24:23;;;;;;;;;;;20.00;99.90;;;;;;4994114;28;19933;-87
2022/08/25 01:26:49;;;;;;;;;;;20.00;99.90;;;;;;4994431;28;20377;-84
2022/08/25 01:29:20;;;;;;;;;;;20.00;99.90;;;;;;5007579;28;19975;-84
2022/08/25 01:32:01;;;;;;;;;;;20.00;99.90;;;;;;4993434;28;19921;-86
2022/08/25 01:34:28;;;;;;;;;;;20.00;99.90;;;;;;5010609;28;19933;-83
2022/08/25 01:36:55;;;;;;;;;;;20.00;99.90;;;;;;4993214;28;19929;-84
2022/08/25 01:39:21;;;;;;;;;;;19.90;99.90;;;;;;4993494;28;19940;-82
2022/08/25 01:41:58;;;;;;;;;;;19.90;99.90;;;;;;4977455;28;19925;-85
2022/08/25 01:44:24;;;;;;;;;;;19.90;99.90;;;;;;4991361;28;19925;-85
2022/08/25 01:46:51;;;;;;;;;;;19.90;99.90;;;;;;4973669;28;19926;-84
2022/08/25 01:49:17;;;;;;;;;;;19.90;99.90;;;;;;4993699;28;19929;-85
2022/08/25 01:52:17;;;;;;;;;;;19.80;99.90;;;;;;4988385;28;20482;-82
2022/08/25 01:54:42;;;;;;;;;;;19.90;99.90;;;;;;4959636;28;19925;-84
2022/08/25 01:57:08;;;;;;;;;;;19.90;99.90;;;;;;5011207;28;20040;-86
2022/08/25 01:59:34;;;;;;;;;;;19.80;99.90;;;;;;4978948;28;19932;-83
2022/08/25 02:02:00;;;;;;;;;;;19.80;99.90;;;;;;5011492;28;19929;-83
2022/08/25 02:04:31;;;;;;;;;;;19.80;99.90;;;;;;4979802;28;19925;-88
2022/08/25 02:12:12;;;;;;;;;;;19.60;99.90;;;;;;5010661;28;19925;-87
2022/08/25 02:15:04;;;;;;;;;;;19.60;99.90;;;;;;4986770;28;19922;-91
2022/08/25 02:17:53;;;;;;;;;;;19.60;99.90;;;;;;5004173;28;19921;-87
2022/08/25 02:20:18;;;;;;;;;;;19.50;99.90;;;;;;4980919;28;19976;-92
2022/08/25 02:22:59;;;;;;;;;;;19.50;99.90;;;;;;4983294;28;19951;-91
2022/08/25 02:25:24;;;;;;;;;;;19.50;99.90;;;;;;4983282;28;19985;-90
2022/08/25 02:27:51;;;;;;;;;;;19.40;99.90;;;;;;4966386;28;19972;-88
2022/08/25 02:36:44;;;;;;;;;;;19.20;99.90;;;;;;4986096;28;20000;-87
2022/08/25 02:39:22;;;;;;;;;;;19.20;99.90;;;;;;4960529;28;19973;-90
2022/08/25 02:41:48;;;;;;;;;;;19.10;99.90;;;;;;4981170;28;19929;-88
2022/08/25 02:48:10;;;;;;;;;;;19.00;99.90;;;;;;5041547;28;19916;-86
2022/08/25 02:50:39;;;;;;;;;;;19.10;99.90;;;;;;5020010;28;19925;-83
2022/08/25 02:53:25;;;;;;;;;;;19.00;99.90;;;;;;5008135;28;19960;-87
2022/08/25 02:55:52;;;;;;;;;;;19.00;99.90;;;;;;5004428;28;19960;-85
2022/08/25 02:58:19;;;;;;;;;;;18.90;99.90;;;;;;4999815;28;19956;-86
2022/08/25 03:01:23;;;;;;;;;;;18.90;99.90;;;;;;5017939;28;20902;-85
2022/08/25 03:03:53;;;;;;;;;;;18.80;99.90;;;;;;5007227;28;19926;-88
2022/08/25 03:06:27;;;;;;;;;;;18.80;99.90;;;;;;4997840;28;19931;-87
2022/08/25 03:08:56;;;;;;;;;;;18.70;99.90;;;;;;4996928;28;19933;-86
2022/08/25 03:11:24;;;;;;;;;;;18.70;99.90;;;;;;5009412;28;19968;-90
2022/08/25 03:13:50;;;;;;;;;;;;;;;;;;4981036;28;20372;-85
2022/08/25 03:16:26;;;;;;;;;;;18.70;99.90;;;;;;5013176;28;19940;-85
2022/08/25 03:18:52;;;;;;;;;;;18.60;99.90;;;;;;4978667;28;19933;-84
2022/08/25 03:21:18;;;;;;;;;;;18.60;99.90;;;;;;4974397;28;19933;-88
2022/08/25 03:23:49;;;;;;;;;;;18.60;99.90;;;;;;4974586;28;19932;-88
2022/08/25 03:29:09;;;;;;;;;;;18.50;99.90;;;;;;5010264;28;20019;-84
2022/08/25 03:31:35;;;;;;;;;;;18.50;99.90;;;;;;4996980;28;19968;-84
2022/08/25 03:34:01;;;;;;;;;;;18.50;99.90;;;;;;4994350;28;19929;-83
2022/08/25 03:36:27;;;;;;;;;;;18.40;99.90;;;;;;4995164;28;20451;-80
2022/08/25 03:38:53;;;;;;;;;;;18.40;99.90;;;;;;4976502;28;20301;-83
2022/08/25 03:41:21;;;;;;;;;;;18.30;99.90;;;;;;4976219;28;19925;-84
2022/08/25 03:43:47;;;;;;;;;;;18.30;99.90;;;;;;4994373;28;20002;-85
2022/08/25 03:46:24;;;;;;;;;;;18.30;99.90;;;;;;4995457;28;19925;-85
2022/08/25 03:48:50;;;;;;;;;;;18.30;99.90;;;;;;5003491;28;19948;-82
2022/08/25 03:51:24;;;;;;;;;;;18.20;99.90;;;;;;4993574;28;19929;-83
2022/08/25 03:53:52;;;;;;;;;;;18.20;99.90;;;;;;4993299;28;20455;-83
2022/08/25 03:56:17;;;;;;;;;;;18.10;99.90;;;;;;5012198;28;19925;-84
2022/08/25 03:58:44;;;;;;;;;;;18.10;99.90;;;;;;4975656;28;19972;-84
2022/08/25 04:01:19;;;;;;;;;;;18.10;99.90;;;;;;4991740;28;19932;-87
2022/08/25 04:03:46;;;;;;;;;;;17.70;99.90;;;;;;4995575;28;19925;-87
2022/08/25 04:06:26;;;;;;;;;;;18.00;99.90;;;;;;5011348;28;19925;-88
2022/08/25 04:09:11;;;;;;;;;;;18.00;99.90;;;;;;4992645;28;19932;-87
2022/08/25 04:18:34;;;;;;;;;;;18.00;99.90;;;;;;5016769;28;19951;-88
2022/08/25 04:21:04;;;;;;;;;;;18.00;99.90;;;;;;4992505;28;19921;-87
2022/08/25 04:23:40;;;;;;;;;;;17.90;99.90;;;;;;5010983;28;19925;-86
2022/08/25 04:26:24;;;;;;;;;;;17.90;99.90;;;;;;5008859;28;19929;-85
2022/08/25 04:28:51;;;;;;;;;;;17.90;99.90;;;;;;4993408;28;19979;-86
2022/08/25 04:31:24;;;;;;;;;;;18.00;99.90;;;;;;4978164;28;19970;-88
2022/08/25 04:33:50;;;;;;;;;;;17.90;99.90;;;;;;5012280;28;19929;-85
2022/08/25 04:36:18;;;;;;;;;;;17.90;99.90;;;;;;4989949;28;19932;-90
2022/08/25 04:38:46;;;;;;;;;;;17.80;99.90;;;;;;4995987;28;20351;-88
2022/08/25 04:41:23;;;;;;;;;;;17.80;99.90;;;;;;5000753;28;19921;-84
2022/08/25 04:43:52;;;;;;;;;;;17.80;99.90;;;;;;5032430;28;19985;-89
2022/08/25 04:49:22;;;;;;;;;;;18.00;99.90;;;;;;5019464;28;19929;-88
2022/08/25 04:51:47;;;;;;;;;;;17.80;99.90;;;;;;4994025;28;19926;-87
2022/08/25 04:54:20;;;;;;;;;;;17.80;99.90;;;;;;4984578;28;19925;-84
2022/08/25 04:56:47;;;;;;;;;;;17.80;99.90;;;;;;4994191;28;19929;-89
2022/08/25 04:59:14;;;;;;;;;;;17.90;99.90;;;;;;4994282;28;19929;-84
2022/08/25 05:11:12;;;;;;;;;;;17.90;99.90;;;;;;5013374;28;19921;-85
2022/08/25 05:13:43;;;;;;;;;;;18.00;99.90;;;;;;4993792;28;19984;-83
2022/08/25 05:16:11;;;;;;;;;;;18.00;99.90;;;;;;4983210;28;19931;-85
2022/08/25 05:18:37;;;;;;;;;;;18.00;99.90;;;;;;5010890;28;19925;-84
2022/08/25 05:21:05;;;;;;;;;;;18.00;99.90;;;;;;5010040;28;19927;-82
2022/08/25 05:23:32;;;;;;;;;;;18.10;99.90;;;;;;4986318;28;20288;-83
2022/08/25 05:26:09;;;;;;;;;;;18.20;99.90;;;;;;4975192;28;19926;-84
2022/08/25 05:28:43;;;;;;;;;;;18.20;99.90;;;;;;4994445;28;20011;-82
2022/08/25 05:34:21;;;;;;;;;;;18.30;99.90;;;;;;5015930;28;19991;-90
2022/08/25 05:36:50;;;;;;;;;;;18.40;99.90;;;;;;5014134;28;20047;-87
2022/08/25 05:39:19;;;;;;;;;;;18.50;99.90;;;;;;4988488;28;19925;-86
2022/08/25 05:41:46;;;;;;;;;;;18.60;99.90;;;;;;5012010;28;19975;-86
2022/08/25 05:44:40;;;;;;;;;;;18.60;99.90;;;;;;4989542;28;19925;-87
2022/08/25 05:50:15;;;;;;;;;;;18.80;99.90;;;;;;5019468;28;20028;-86
2022/08/25 05:52:45;;;;;;;;;;;18.90;99.90;;;;;;5020468;28;19931;-86
2022/08/25 05:55:11;;;;;;;;;;;19.00;99.90;;;;;;5008954;28;19933;-88
2022/08/25 05:57:37;;;;;;;;;;;19.00;99.90;;;;;;5008040;28;20492;-88
2022/08/25 06:00:08;;;;;;;;;;;19.10;99.90;;;;;;5010989;28;20399;-83
2022/08/25 06:02:40;;;;;;;;;;;19.20;99.90;;;;;;4983416;28;19941;-81
2022/08/25 06:05:06;;;;;;;;;;;19.30;99.90;;;;;;4978628;28;19975;-83
2022/08/25 06:07:32;;;;;;;;;;;19.40;99.90;;;;;;4994329;28;19933;-86
2022/08/25 06:09:58;;;;;;;;;;;19.50;99.90;;;;;;4992821;28;20091;-88
2022/08/25 06:12:25;;;;;;;;;;;19.50;99.90;;;;;;5013049;28;19929;-84
2022/08/25 06:14:51;;;;;;;;;;;19.60;99.90;;;;;;5004915;28;20291;-82
2022/08/25 06:17:17;;;;;;;;;;;19.70;99.90;;;;;;4975806;28;20466;-86
2022/08/25 06:19:43;;;;;;;;;;;19.80;99.90;;;;;;4974759;28;19933;-83
2022/08/25 06:22:11;;;;;;;;;;;19.90;99.90;;;;;;4976994;28;19929;-83
2022/08/25 06:24:37;;;;;;;;;;;19.90;99.90;;;;;;4978824;28;19929;-85
2022/08/25 06:27:03;;;;;;;;;;;20.10;99.90;;;;;;4976923;28;19932;-88
2022/08/25 06:29:44;;;;;;;;;;;20.20;99.90;;;;;;4992657;28;20098;-88
2022/08/25 06:32:10;;;;;;;;;;;20.40;99.90;;;;;;5005023;28;20474;-88
2022/08/25 06:34:36;;;;;;;;;;;20.40;99.90;;;;;;4995536;28;19972;-86
2022/08/25 06:37:02;;;;;;;;;;;20.50;99.90;;;;;;4986595;28;19934;-83
2022/08/25 06:39:28;;;;;;;;;;;20.50;99.90;;;;;;4989147;28;20279;-83
2022/08/25 06:41:55;;;;;;;;;;;20.50;99.90;;;;;;5005294;28;19979;-85
2022/08/25 06:44:41;;;;;;;;;;;20.80;99.90;;;;;;4991170;28;19925;-84
2022/08/25 06:47:08;;;;;;;;;;;20.90;99.90;;;;;;4990880;28;19933;-86
2022/08/25 06:49:34;;;;;;;;;;;21.10;99.90;;;;;;5012022;28;19921;-85
2022/08/25 06:52:00;;;;;;;;;;;21.30;99.90;;;;;;4979565;28;20066;-82
2022/08/25 06:54:35;;;;;;;;;;;21.40;99.90;;;;;;4980965;28;20008;-84
2022/08/25 06:57:01;;;;;;;;;;;21.60;99.90;;;;;;4995719;28;20409;-86
2022/08/25 06:59:27;;;;;;;;;;;21.00;99.90;;;;;;5010513;28;19933;-84
2022/08/25 07:01:53;;;;;;;;;;;21.80;99.90;;;;;;4987982;28;20000;-86
2022/08/25 07:04:25;;;;;;;;;;;22.00;99.90;;;;;;4989730;28;20331;-85
2022/08/25 07:07:06;;;;;;;;;;;22.30;99.90;;;;;;4977097;28;19929;-81
2022/08/25 07:09:33;;;;;;;;;;;22.80;99.90;;;;;;4990958;28;19933;-85
2022/08/25 07:12:01;;;;;;;;;;;23.60;99.90;;;;;;4992775;28;19925;-84
2022/08/25 07:14:39;;;;;;;;;;;24.20;99.90;;;;;;4978219;28;19925;-84
2022/08/25 07:17:05;;;;;;;;;;;24.80;99.90;;;;;;5008148;28;20004;-88
2022/08/25 07:19:31;;;;;;;;;;;25.50;99.90;;;;;;4976382;28;19977;-87
2022/08/25 07:21:57;;;;;;;;;;;26.20;99.90;;;;;;5004081;28;19929;-95
2022/08/25 07:24:24;;;;;;;;;;;26.80;99.90;;;;;;4977900;28;19933;-84
2022/08/25 07:26:50;;;;;;;;;;;27.40;99.90;;;;;;4988549;28;19960;-86
2022/08/25 07:29:17;;;;;;;;;;;28.70;99.90;;;;;;4986360;28;19991;-88
2022/08/25 07:31:43;;;;;;;;;;;28.70;99.90;;;;;;5007062;28;20414;-86
2022/08/25 07:36:54;;;;;;;;;;;29.20;96.40;;;;;;5007820;28;19935;-85
2022/08/25 07:39:20;;;;;;;;;;;29.30;94.50;;;;;;4995191;28;20020;-83
2022/08/25 07:41:46;;;;;;;;;;;29.20;92.80;;;;;;4991601;28;20007;-82
2022/08/25 07:44:15;;;;;;;;;;;28.60;94.00;;;;;;4986350;28;19989;-84
2022/08/25 07:46:41;;;;;;;;;;;27.80;95.30;;;;;;5004679;28;20015;-81
2022/08/25 07:49:07;;;;;;;;;;;27.20;96.20;;;;;;5008082;28;20547;-83
2022/08/25 07:51:32;;;;;;;;;;;26.90;98.70;;;;;;4977479;28;19971;-81
2022/08/25 07:53:58;;;;;;;;;;;27.00;98.30;;;;;;4993309;28;19929;-83
2022/08/25 07:56:24;;;;;;;;;;;27.60;96.70;;;;;;5005480;28;20003;-80
2022/08/25 07:58:51;;;;;;;;;;;28.40;95.40;;;;;;5005316;28;19931;-83
2022/08/25 08:01:19;;;;;;;;;;;29.40;94.50;;;;;;4986461;28;19932;-83
2022/08/25 08:03:45;;;;;;;;;;;30.10;94.90;;;;;;5005378;28;19912;-80
2022/08/25 08:06:12;;;;;;;;;;;30.50;91.60;;;;;;5005337;28;20289;-80
2022/08/25 08:08:43;;;;;;;;;;;31.00;90.10;;;;;;5005164;28;19932;-82
2022/08/25 08:11:16;;;;;;;;;;;31.40;89.60;;;;;;5005852;28;19925;-84
2022/08/25 08:13:42;;;;;;;;;;;32.20;85.50;;;;;;4987883;28;20064;-90
2022/08/25 08:16:11;;;;;;;;;;;32.30;82.40;;;;;;4986705;28;20432;-83
2022/08/25 08:18:37;;;;;;;;;;;32.20;85.30;;;;;;4988240;28;19971;-79
2022/08/25 08:21:03;;;;;;;;;;;31.80;78.40;;;;;;5007780;28;20576;-82
2022/08/25 08:23:31;;;;;;;;;;;31.80;79.30;;;;;;4987248;28;20023;-82
2022/08/25 08:25:57;;;;;;;;;;;32.10;79.90;;;;;;4990189;28;19930;-81
2022/08/25 08:28:26;;;;;;;;;;;32.40;79.40;;;;;;4976620;28;19995;-81
2022/08/25 08:30:52;;;;;;;;;;;32.70;78.90;;;;;;4988925;28;19931;-82
2022/08/25 08:33:18;;;;;;;;;;;33.00;78.50;;;;;;5001887;28;19929;-82
2022/08/25 08:35:45;;;;;;;;;;;32.90;75.40;;;;;;4976223;28;20040;-81
2022/08/25 08:38:11;;;;;;;;;;;32.80;76.40;;;;;;4991660;28;19983;-79
2022/08/25 08:42:15;;;;;;;;;;;32.70;74.80;;;;;;5003914;28;20470;-86
2022/08/25 08:43:33;;;;;;;;;;;32.30;78.20;;;;;;5004174;28;20013;-81
2022/08/25 08:45:58;;;;;;;;;;;32.40;76.40;;;;;;4997855;28;19948;-79
2022/08/25 08:48:33;;;;;;;;;;;32.10;77.30;;;;;;4974741;28;20384;-79
2022/08/25 08:51:25;;;;;;;;;;;31.80;75.90;;;;;;5005306;28;19925;-86
2022/08/25 08:53:56;;;;;;;;;;;31.40;77.20;;;;;;4988558;28;19929;-85
2022/08/25 08:56:25;;;;;;;;;;;31.10;78.10;;;;;;5006334;28;20596;-79
2022/08/25 08:59:00;;;;;;;;;;;30.70;77.80;;;;;;5009420;28;20032;-84
2022/08/25 09:01:31;;;;;;;;;;;30.40;79.80;;;;;;5007769;28;20512;-80
2022/08/25 09:04:15;;;;;;;;;;;30.30;81.70;;;;;;4986075;28;20400;-80
2022/08/25 09:06:43;;;;;;;;;;;30.10;79.90;;;;;;4993809;28;20022;-83
2022/08/25 09:09:11;;;;;;;;;;;29.90;80.60;;;;;;5013710;28;19955;-84
2022/08/25 09:11:40;;;;;;;;;;;29.70;80.30;;;;;;4994093;28;19951;-85
2022/08/25 09:14:26;;;;;;;;;;;29.60;81.30;;;;;;5012170;28;19933;-84
2022/08/25 09:17:12;;;;;;;;;;;29.60;82.50;;;;;;5003038;28;19926;-83
2022/08/25 09:19:38;;;;;;;;;;;29.60;81.60;;;;;;5011380;28;19987;-84
2022/08/25 09:22:06;;;;;;;;;;;29.50;82.90;;;;;;5014414;28;19968;-82
2022/08/25 09:24:46;;;;;;;;;;;29.60;81.90;;;;;;5009622;28;19925;-85
2022/08/25 09:27:11;;;;;;;;;;;29.60;81.90;;;;;;5010144;28;19929;-81
2022/08/25 09:29:48;;;;;;;;;;;29.60;80.80;;;;;;5012091;28;19952;-82
2022/08/25 09:32:14;;;;;;;;;;;29.60;80.30;;;;;;5009312;28;19933;-82
2022/08/25 09:34:40;;;;;;;;;;;29.80;80.00;;;;;;5010441;28;19937;-83
2022/08/25 09:37:06;;;;;;;;;;;30.00;80.40;;;;;;4989727;28;20519;-80
2022/08/25 09:39:32;;;;;;;;;;;30.00;79.80;;;;;;5013029;28;19940;-80
2022/08/25 09:41:59;;;;;;;;;;;30.00;79.00;;;;;;5013079;28;19987;-86
2022/08/25 09:44:26;;;;;;;;;;;30.00;77.80;;;;;;5016045;28;19925;-80
2022/08/25 09:47:02;;;;;;;;;;;30.10;78.70;;;;;;4992936;28;19926;-79
2022/08/25 09:49:39;;;;;;;;;;;30.20;78.00;;;;;;4992824;28;19955;-85
2022/08/25 09:52:21;;;;;;;;;;;30.20;77.80;;;;;;5009850;28;19975;-85
2022/08/25 09:54:49;;;;;;;;;;;30.10;76.30;;;;;;5011035;28;19925;-82
2022/08/25 09:57:48;;;;;;;;;;;30.10;77.30;;;;;;4983566;28;19934;-81
2022/08/25 10:00:18;;;;;;;;;;;30.10;77.60;;;;;;4946069;28;19937;-81
2022/08/25 10:02:59;;;;;;;;;;;30.30;78.60;;;;;;5003655;28;19926;-82
2022/08/25 10:05:25;;;;;;;;;;;30.40;76.20;;;;;;4988278;28;19925;-80
2022/08/25 10:07:59;;;;;;;;;;;30.50;76.30;;;;;;5008720;28;19928;-84
2022/08/25 10:10:33;;;;;;;;;;;30.60;76.70;;;;;;5004380;28;20320;-84
2022/08/25 10:13:00;;;;;;;;;;;30.50;75.60;;;;;;5004820;28;19968;-85
2022/08/25 10:15:26;;;;;;;;;;;30.60;75.40;;;;;;5004118;28;19929;-84
2022/08/25 10:17:52;;;;;;;;;;;30.60;73.90;;;;;;4994091;28;19929;-81
2022/08/25 10:20:20;;;;;;;;;;;30.80;75.50;;;;;;4977874;28;20431;-84
2022/08/25 10:22:46;;;;;;;;;;;30.90;72.40;;;;;;5004646;28;19929;-84
2022/08/25 10:25:15;;;;;;;;;;;31.10;73.20;;;;;;5008302;28;19976;-84
2022/08/25 10:27:51;;;;;;;;;;;31.10;73.50;;;;;;5012181;28;20028;-88
2022/08/25 10:30:17;;;;;;;;;;;31.10;73.00;;;;;;4991192;28;19929;-83
2022/08/25 10:33:22;;;;;;;;;;;31.20;74.40;;;;;;5005466;28;19968;-81
2022/08/25 10:36:14;;;;;;;;;;;31.20;72.20;;;;;;4930215;28;19968;-81
2022/08/25 10:38:46;;;;;;;;;;;31.30;71.80;;;;;;4916733;29;20270;-81
2022/08/25 10:41:16;;;;;;;;;;;31.30;69.90;;;;;;4915673;28;19949;-82
2022/08/25 10:43:56;;;;;;;;;;;31.30;69.30;;;;;;4932857;29;19934;-84
2022/08/25 10:46:33;;;;;;;;;;;31.40;68.90;;;;;;4941724;28;19944;-82
2022/08/25 10:49:03;;;;;;;;;;;31.40;70.30;;;;;;4994945;28;20416;-84
2022/08/25 10:51:42;;;;;;;;;;;31.40;69.00;;;;;;4990386;28;19932;-84
2022/08/25 10:54:14;;;;;;;;;;;31.40;69.40;;;;;;4992970;28;19933;-83
2022/08/25 10:56:42;;;;;;;;;;;31.60;69.10;;;;;;5000627;28;19952;-81
2022/08/25 10:59:34;;;;;;;;;;;31.80;68.30;;;;;;5008651;28;20091;-82
2022/08/25 11:02:11;;;;;;;;;;;31.70;68.00;;;;;;4983233;28;19952;-79
2022/08/25 11:04:38;;;;;;;;;;;31.60;68.10;;;;;;4992170;28;20495;-81
2022/08/25 11:07:08;;;;;;;;;;;31.80;69.90;;;;;;4992079;28;20015;-81
2022/08/25 11:09:38;;;;;;;;;;;31.90;69.70;;;;;;5006493;28;19925;-84
2022/08/25 11:12:07;;;;;;;;;;;32.10;69.80;;;;;;5005943;28;19928;-85
2022/08/25 11:14:36;;;;;;;;;;;32.20;69.50;;;;;;5001259;28;19936;-85
2022/08/25 11:17:05;;;;;;;;;;;32.30;70.20;;;;;;5006087;28;20012;-82
2022/08/25 11:19:34;;;;;;;;;;;32.10;68.70;;;;;;5003869;28;20610;-82
2022/08/25 11:21:59;;;;;;;;;;;32.00;68.60;;;;;;5007247;28;19925;-85
2022/08/25 11:24:28;;;;;;;;;;;32.10;68.60;;;;;;5005860;28;19932;-82
2022/08/25 11:26:55;;;;;;;;;;;31.90;65.70;;;;;;5005248;28;20099;-85
2022/08/25 11:29:24;;;;;;;;;;;31.90;66.60;;;;;;5005536;28;20515;-84
2022/08/25 11:31:51;;;;;;;;;;;32.10;67.00;;;;;;5002509;28;21446;-83
2022/08/25 11:34:27;;;;;;;;;;;32.20;67.30;;;;;;5008149;28;19925;-87
2022/08/25 11:37:02;;;;;;;;;;;32.30;69.20;;;;;;5003971;28;19932;-85
2022/08/25 11:39:47;;;;;;;;;;;32.30;67.20;;;;;;4993376;28;20430;-84
2022/08/25 11:42:42;;;;;;;;;;;32.10;67.60;;;;;;5005815;28;20288;-83
2022/08/25 11:45:27;;;;;;;;;;;32.00;66.60;;;;;;4921978;28;19926;-85
2022/08/25 11:48:02;;;;;;;;;;;31.80;66.00;;;;;;4992650;28;19971;-84
2022/08/25 11:50:31;;;;;;;;;;;31.70;67.10;;;;;;5003790;28;20002;-85
2022/08/25 11:53:04;;;;;;;;;;;31.60;66.60;;;;;;5006488;28;19932;-83
2022/08/25 11:55:36;;;;;;;;;;;31.70;66.80;;;;;;4989846;28;20669;-83
2022/08/25 11:58:17;;;;;;;;;;;31.80;68.00;;;;;;4994050;28;19931;-84
2022/08/25 12:00:43;;;;;;;;;;;32.00;68.90;;;;;;5002754;28;19929;-84
2022/08/25 12:03:27;;;;;;;;;;;32.10;68.00;;;;;;4985102;28;20427;-86
2022/08/25 12:06:13;;;;;;;;;;;32.00;66.70;;;;;;4990908;28;20024;-83
2022/08/25 12:09:02;;;;;;;;;;;31.90;67.20;;;;;;4987298;28;20484;-86
2022/08/25 12:11:38;;;;;;;;;;;31.80;67.00;;;;;;4984276;28;20276;-87
2022/08/25 12:14:12;;;;;;;;;;;31.70;67.10;;;;;;5000778;28;19925;-85
2022/08/25 12:16:42;;;;;;;;;;;31.70;66.90;;;;;;4988873;28;19929;-84
2022/08/25 12:19:27;;;;;;;;;;;31.60;66.00;;;;;;4990026;28;19925;-83
2022/08/25 12:21:55;;;;;;;;;;;31.60;66.80;;;;;;4987838;28;20371;-81
2022/08/25 12:24:42;;;;;;;;;;;31.60;66.20;;;;;;4992608;28;19925;-83
2022/08/25 12:27:32;;;;;;;;;;;31.60;66.20;;;;;;4993336;28;20012;-86
2022/08/25 12:30:04;;;;;;;;;;;31.40;65.50;;;;;;4969043;28;19925;-81
2022/08/25 12:32:55;;;;;;;;;;;31.40;65.70;;;;;;4993282;28;20036;-85
2022/08/25 12:35:23;;;;;;;;;;;31.20;65.10;;;;;;5004598;28;19929;-82
2022/08/25 12:38:04;;;;;;;;;;;31.10;65.80;;;;;;4995709;28;20004;-81
2022/08/25 12:40:33;;;;;;;;;;;31.10;66.60;;;;;;5009763;28;19940;-81
2022/08/25 12:43:01;;;;;;;;;;;31.10;66.20;;;;;;5009479;28;19925;-80
2022/08/25 12:45:36;;;;;;;;;;;31.20;66.30;;;;;;4996176;28;19933;-84
2022/08/25 12:48:38;;;;;;;;;;;31.20;66.50;;;;;;4995312;28;19929;-84
2022/08/25 12:51:19;;;;;;;;;;;31.20;65.90;;;;;;4969380;28;19969;-81
2022/08/25 12:54:01;;;;;;;;;;;31.20;64.80;;;;;;4986799;28;20124;-88
2022/08/25 12:56:31;;;;;;;;;;;31.10;65.00;;;;;;4995015;28;19940;-89
2022/08/25 12:59:16;;;;;;;;;;;31.00;66.10;;;;;;5014236;28;20398;-90
2022/08/25 13:01:42;;;;;;;;;;;30.80;64.00;;;;;;4995792;28;19925;-80
2022/08/25 13:04:28;;;;;;;;;;;30.80;65.70;;;;;;4997844;28;19975;-83
2022/08/25 13:07:17;;;;;;;;;;;30.80;66.70;;;;;;4951419;28;20005;-84
2022/08/25 13:10:01;;;;;;;;;;;30.80;66.20;;;;;;4994694;28;20288;-83
2022/08/25 13:12:34;;;;;;;;;;;30.70;65.40;;;;;;4994112;28;19933;-81
2022/08/25 13:15:00;;;;;;;;;;;30.60;65.90;;;;;;4991195;28;19971;-84
2022/08/25 13:17:30;;;;;;;;;;;30.60;65.40;;;;;;5005383;28;20045;-78
2022/08/25 13:20:12;;;;;;;;;;;30.60;63.20;;;;;;5008878;28;20466;-82
2022/08/25 13:22:38;;;;;;;;;;;30.60;64.20;;;;;;4987144;28;19925;-82
2022/08/25 13:25:04;;;;;;;;;;;30.60;65.60;;;;;;5009153;28;19925;-82
2022/08/25 13:27:31;;;;;;;;;;;30.60;65.70;;;;;;5010242;28;19933;-82
2022/08/25 13:29:58;;;;;;;;;;;30.60;65.60;;;;;;5003075;28;19964;-84
2022/08/25 13:32:32;;;;;;;;;;;30.60;66.80;;;;;;5007864;28;19929;-80
2022/08/25 13:35:17;;;;;;;;;;;30.60;65.30;;;;;;5007819;28;19937;-83
2022/08/25 13:37:43;;;;;;;;;;;30.50;65.50;;;;;;4994058;28;20024;-82
2022/08/25 13:40:28;;;;;;;;;;;30.40;66.10;;;;;;5012887;28;20035;-87
2022/08/25 13:43:02;;;;;;;;;;;30.40;65.20;;;;;;5013384;28;19932;-80
2022/08/25 13:45:29;;;;;;;;;;;30.40;64.50;;;;;;5011249;28;20020;-84
2022/08/25 13:47:58;;;;;;;;;;;30.40;64.30;;;;;;5010406;28;20518;-87
2022/08/25 13:50:27;;;;;;;;;;;30.40;65.80;;;;;;4995735;28;20152;-80
2022/08/25 13:53:01;;;;;;;;;;;30.30;65.50;;;;;;5004871;28;20006;-81
2022/08/25 13:55:32;;;;;;;;;;;30.30;66.00;;;;;;5017859;28;19944;-82
2022/08/25 13:57:59;;;;;;;;;;;30.40;65.90;;;;;;4989286;28;19974;-86
2022/08/25 14:00:28;;;;;;;;;;;30.40;64.50;;;;;;4986570;28;19921;-83
2022/08/25 14:02:55;;;;;;;;;;;30.30;65.10;;;;;;4990069;28;20265;-84
2022/08/25 14:05:37;;;;;;;;;;;30.30;66.10;;;;;;5011582;28;20010;-79
2022/08/25 14:08:04;;;;;;;;;;;30.30;64.70;;;;;;5006389;28;19925;-81
2022/08/25 14:10:43;;;;;;;;;;;30.30;65.50;;;;;;4991210;28;19929;-83
2022/08/25 14:13:11;;;;;;;;;;;30.20;65.50;;;;;;4983311;28;19933;-82
2022/08/25 14:15:38;;;;;;;;;;;30.20;66.50;;;;;;4985511;28;19947;-83
2022/08/25 14:18:16;;;;;;;;;;;30.10;65.50;;;;;;5003301;28;20009;-86
2022/08/25 14:20:44;;;;;;;;;;;30.10;65.10;;;;;;5003487;28;19925;-80
2022/08/25 14:23:13;;;;;;;;;;;30.10;64.90;;;;;;4990359;28;19933;-81
2022/08/25 14:25:47;;;;;;;;;;;30.10;64.80;;;;;;5006013;28;20400;-83
2022/08/25 14:28:14;;;;;;;;;;;30.00;63.60;;;;;;4986494;28;19925;-82
2022/08/25 14:30:46;;;;;;;;;;;30.00;64.80;;;;;;5002956;28;19926;-82
2022/08/25 14:33:13;;;;;;;;;;;29.90;64.60;;;;;;5008311;28;20020;-80
2022/08/25 14:35:40;;;;;;;;;;;29.80;64.70;;;;;;5005151;28;19926;-81
2022/08/25 14:38:10;;;;;;;;;;;29.80;61.50;;;;;;5005802;28;19933;-80
2022/08/25 14:40:36;;;;;;;;;;;29.80;63.30;;;;;;5004102;28;19925;-80
2022/08/25 14:43:02;;;;;;;;;;;29.80;63.00;;;;;;5006020;28;20390;-80
2022/08/25 14:45:30;;;;;;;;;;;29.70;63.90;;;;;;5007704;28;19979;-83
2022/08/25 14:47:59;;;;;;;;;;;29.70;63.70;;;;;;5008404;28;19925;-86
2022/08/25 14:50:24;;;;;;;;;;;29.60;63.60;;;;;;5011132;28;19925;-82
2022/08/25 14:52:51;;;;;;;;;;;29.70;61.90;;;;;;4994471;28;20031;-80
2022/08/25 14:55:17;;;;;;;;;;;29.60;64.00;;;;;;5008356;28;19925;-85
2022/08/25 14:57:44;;;;;;;;;;;29.50;64.60;;;;;;4991187;28;20023;-78
2022/08/25 15:00:14;;;;;;;;;;;29.50;64.20;;;;;;4992401;28;19933;-82
2022/08/25 15:02:42;;;;;;;;;;;29.50;64.60;;;;;;4990554;28;19925;-79
2022/08/25 15:05:10;;;;;;;;;;;29.50;64.70;;;;;;4985523;28;20019;-82
2022/08/25 15:10:20;;;;;;;;;;;29.50;65.20;;;;;;4993903;28;19925;-85
2022/08/25 15:12:46;;;;;;;;;;;29.50;64.10;;;;;;4976200;28;19936;-80
2022/08/25 15:15:13;;;;;;;;;;;29.50;64.50;;;;;;4987507;28;19925;-81
2022/08/25 15:17:40;;;;;;;;;;;29.50;63.90;;;;;;4993975;28;20418;-82
2022/08/25 15:20:06;;;;;;;;;;;29.50;63.70;;;;;;5004322;28;19933;-83
2022/08/25 15:22:31;;;;;;;;;;;29.50;63.60;;;;;;5010281;28;19929;-83
2022/08/25 15:24:57;;;;;;;;;;;29.50;64.60;;;;;;4986769;28;19967;-81
2022/08/25 15:27:23;;;;;;;;;;;29.40;64.60;;;;;;5011201;28;20012;-80
2022/08/25 15:29:49;;;;;;;;;;;29.40;64.70;;;;;;4980022;28;20569;-80
2022/08/25 15:32:15;;;;;;;;;;;29.40;64.90;;;;;;4990414;28;20039;-85
2022/08/25 15:34:41;;;;;;;;;;;29.40;64.80;;;;;;5009643;28;19976;-82